Farmersville's Hourly Summary for Sunday, March 19, 2017
Hour Temp
(f)
RH
(%)
Solar Rad.
(MJ/m2)
Rainfall
(in)
Wind
(mph)
3/19/2017 12:00 AM 64 88 0 0 4.32
3/19/2017 1:00 AM 63 99 0 0 3.66
3/19/2017 2:00 AM 63 99 0 0 3.84
3/19/2017 3:00 AM 62 99 0 0 3.16
3/19/2017 4:00 AM 62 99 0 0 3.09
3/19/2017 5:00 AM 61 99 0 0 2
3/19/2017 6:00 AM 61 100 0 0 0.72
3/19/2017 7:00 AM 61 100 0 0 0.59
3/19/2017 8:00 AM 60 100 0.03 0 0.4
3/19/2017 9:00 AM 62 99 0.31 0 0.65
3/19/2017 10:00 AM 66 99 0.97 0 3.14
3/19/2017 11:00 AM 70 76 1.72 0 6.15
3/19/2017 12:00 PM 72 69 2.35 0 6.4
3/19/2017 1:00 PM 74 65 2.67 0 6.42
3/19/2017 2:00 PM 76 61 2.8 0 7.06
3/19/2017 3:00 PM 77 58 2.75 0 7.04
3/19/2017 4:00 PM 79 55 2.47 0 7.49
3/19/2017 5:00 PM 79 53 1.82 0 6.51
3/19/2017 6:00 PM 79 53 1.23 0 5.97
3/19/2017 7:00 PM 78 53 0.59 0 5.79
3/19/2017 8:00 PM 75 58 0.07 0 4.77
3/19/2017 9:00 PM 72 65 0 0 3.07
3/19/2017 10:00 PM 70 71 0 0 2.75
3/19/2017 11:00 PM 69 72 0 0 1.79
Data Summary 68 78 19.78 0.00 4.03